Les Cayes, Haiti
Current Conditions -  °F | °C
As of 3:56 AM on Thursday 27 Nov 2014 (Local Time) from MUGM Reporting Station
Few Clouds Few Clouds  
Wind Chill: 76°   Ceiling: Unl
Heat Index: 76°   Visibility: 6mi
Dew Point: 71°   Wind: 8mph
Humidity: 85%   Direction: 330°NNW
Pressure: 29.97"   Gusts: NA
Location:  18.2°N, 73.75°W
Report Text: MUGM 270856Z 33007KT 9999 FEW030 24/22 A2997 RMK SLP149 T02440217 56009
Loading
Personal Weather Stations






























Interactive Weather Map New forecast layout! Learn more

10-Day Weather Forecast

Advertisements
Track Severe Weather on mobile